San Diego, California
Traffic Map
Current Weather Conditions
San Diego, California
Overcast
Overcast
57°
Feels Like: 57°
Wind Chill: 57° Ceiling: 4300
Heat Index: 57° Visibility: 10mi
Dew Point: 49° Wind: 3mph
Humidity: 74% Direction: 130° (SE)
Pressure: 29.92in Gusts: 0mph
Raw Report DataKSAN 200751Z 13003KT 10SM FEW025 BKN043 OVC070 14/09 A2992 RMK AO2 SLP133 VCSH T01390094 401830133
Traffic Incident Summary
Active as of:
Severity:
Category:
InformationThere was an issue retrieving the traffic information for this location. Please try a different location or try again shortly.
Advertisements
Track Severe Weather on mobile